Time;durP1;ratioP1;P1;durP2;ratioP2;P2;SDS_P1;SDS_P2;PMS_P1;PMS_P2;Temp;Humidity;BMP_temperature;BMP_pressure;BME280_temperature;BME280_humidity;BME280_pressure;Samples;Min_cycle;Max_cycle;Signal;HPM_P1;HPM_P2
2021/12/18 00:00:19;;;;;;;13.05;7.47;;;7.90;63.40;;;;;;5032329;28;20100;-71
2021/12/18 00:02:46;;;;;;;13.40;7.03;;;7.80;63.50;;;;;;5015022;28;20045;-74
2021/12/18 00:05:12;;;;;;;13.55;7.70;;;7.90;63.40;;;;;;5014434;28;20527;-66
2021/12/18 00:07:38;;;;;;;11.90;7.07;;;8.00;63.50;;;;;;5014489;28;20064;-67
2021/12/18 00:10:05;;;;;;;13.57;8.10;;;8.00;63.40;;;;;;5014195;28;20053;-71
2021/12/18 00:12:31;;;;;;;14.93;8.68;;;8.00;63.30;;;;;;5013401;28;20026;-70
2021/12/18 00:14:57;;;;;;;13.20;7.90;;;8.00;63.50;;;;;;5032236;28;20049;-72
2021/12/18 00:17:23;;;;;;;15.30;8.90;;;8.00;63.50;;;;;;5031277;28;20029;-63
2021/12/18 00:19:49;;;;;;;14.48;7.20;;;8.00;63.50;;;;;;5032342;28;20084;-67
2021/12/18 00:22:14;;;;;;;14.85;8.27;;;7.90;63.60;;;;;;5031491;28;20037;-65
2021/12/18 00:24:40;;;;;;;13.52;7.88;;;8.00;63.70;;;;;;4998591;28;20057;-67
2021/12/18 00:27:06;;;;;;;16.92;9.00;;;8.00;63.50;;;;;;5013960;28;20030;-65
2021/12/18 00:29:32;;;;;;;14.02;8.70;;;8.00;63.50;;;;;;5032559;28;20052;-69
2021/12/18 00:31:58;;;;;;;12.80;7.72;;;8.00;63.60;;;;;;5031864;28;20097;-70
2021/12/18 00:34:25;;;;;;;14.27;8.05;;;8.00;63.80;;;;;;5032353;28;20022;-71
2021/12/18 00:36:51;;;;;;;15.35;8.13;;;8.00;63.80;;;;;;5032434;28;20171;-67
2021/12/18 00:39:18;;;;;;;16.90;8.45;;;8.00;63.70;;;;;;5014313;28;20116;-67
2021/12/18 00:44:13;;;;;;;14.70;8.38;;;8.00;63.60;;;;;;5031588;28;20021;-71
2021/12/18 00:46:44;;;;;;;15.38;8.90;;;8.00;63.60;;;;;;5032380;28;20065;-72
2021/12/18 00:49:13;;;;;;;13.73;8.23;;;8.00;63.70;;;;;;5031439;28;20029;-71
2021/12/18 00:51:39;;;;;;;12.15;7.93;;;8.00;63.60;;;;;;5031978;28;20076;-72
2021/12/18 00:54:05;;;;;;;13.68;8.05;;;8.00;63.60;;;;;;5031202;28;20077;-63
2021/12/18 00:56:31;;;;;;;14.82;8.18;;;7.90;63.70;;;;;;5014470;28;20033;-67
2021/12/18 00:58:57;;;;;;;12.70;7.75;;;7.90;63.70;;;;;;5031800;28;20033;-65
2021/12/18 01:01:26;;;;;;;14.52;7.95;;;7.80;63.90;;;;;;5031458;28;20096;-70
2021/12/18 01:03:53;;;;;;;13.75;7.55;;;7.80;63.90;;;;;;5032109;28;20155;-69
2021/12/18 01:06:21;;;;;;;16.70;8.07;;;7.80;64.10;;;;;;5031338;28;20033;-70
2021/12/18 01:08:47;;;;;;;16.20;8.85;;;7.80;64.30;;;;;;5014356;28;20028;-72
2021/12/18 01:14:19;;;;;;;14.63;7.78;;;7.80;64.20;;;;;;5031447;28;20111;-66
2021/12/18 01:22:39;;;;;;;15.02;7.85;;;7.80;64.00;;;;;;5014301;28;20182;-66
2021/12/18 01:25:07;;;;;;;14.30;8.38;;;7.70;64.40;;;;;;5031251;28;20068;-67
2021/12/18 01:27:34;;;;;;;12.68;7.45;;;7.80;64.20;;;;;;5014533;28;20041;-72
2021/12/18 01:29:59;;;;;;;15.63;7.43;;;7.80;64.50;;;;;;5031012;28;20032;-69
2021/12/18 01:32:27;;;;;;;14.32;7.85;;;7.80;64.30;;;;;;5031597;28;20021;-69
2021/12/18 01:34:53;;;;;;;16.05;8.05;;;7.90;64.20;;;;;;5031639;28;20163;-72
2021/12/18 01:37:20;;;;;;;13.38;7.95;;;8.00;64.00;;;;;;5013618;28;20314;-69
2021/12/18 01:39:46;;;;;;;12.60;7.88;;;8.00;63.90;;;;;;5031995;28;20025;-73
2021/12/18 01:45:25;;;;;;;15.10;8.57;;;8.00;64.00;;;;;;5032074;28;20378;-72
2021/12/18 01:52:59;;;;;;;14.02;8.27;;;7.90;64.00;;;;;;5035221;28;20088;-72
2021/12/18 01:55:28;;;;;;;16.13;8.07;;;7.90;64.20;;;;;;5001711;28;20025;-67
2021/12/18 01:57:54;;;;;;;15.32;7.70;;;8.00;64.10;;;;;;5035643;28;20029;-73
2021/12/18 02:00:30;;;;;;;11.95;7.32;;;8.00;63.90;;;;;;5017438;28;20440;-72
2021/12/18 02:02:56;;;;;;;13.48;7.80;;;8.10;63.80;;;;;;5017187;28;20032;-69
2021/12/18 02:05:22;;;;;;;11.32;6.72;;;8.10;63.60;;;;;;5034966;28;20034;-71
2021/12/18 02:07:47;;;;;;;14.98;7.80;;;8.20;63.30;;;;;;5001576;28;20474;-69
2021/12/18 02:10:27;;;;;;;13.02;7.50;;;8.10;62.70;;;;;;5034768;28;20038;-73
2021/12/18 02:21:17;;;;;;;;;;;8.00;62.90;;;;;;5035259;28;20076;-63
2021/12/18 02:23:44;;;;;;;14.65;7.88;;;8.10;63.20;;;;;;5035253;28;19905;-71
2021/12/18 02:26:10;;;;;;;13.63;8.32;;;8.10;63.40;;;;;;5034943;28;20060;-60
2021/12/18 02:28:36;;;;;;;14.27;8.88;;;8.10;63.60;;;;;;5035348;28;20026;-61
2021/12/18 02:31:21;;;;;;;14.77;8.85;;;8.10;63.50;;;;;;5017199;28;20466;-61
2021/12/18 02:33:47;;;;;;;14.55;8.10;;;8.10;63.40;;;;;;5036120;28;20021;-63
2021/12/18 02:36:23;;;;;;;12.43;7.78;;;8.10;63.50;;;;;;5036282;28;20129;-62
2021/12/18 02:41:34;;;;;;;15.43;8.30;;;8.10;63.50;;;;;;5036581;28;20025;-66
2021/12/18 02:44:07;;;;;;;14.43;8.20;;;8.00;63.50;;;;;;5018367;28;20099;-69
2021/12/18 02:46:33;;;;;;;17.13;8.32;;;8.10;63.60;;;;;;5035231;28;20068;-74
2021/12/18 02:49:09;;;;;;;16.63;8.38;;;8.10;63.60;;;;;;5034546;28;20037;-68
2021/12/18 02:51:34;;;;;;;12.63;8.25;;;8.10;63.50;;;;;;5001019;28;20435;-61
2021/12/18 02:54:01;;;;;;;14.60;8.07;;;8.10;63.70;;;;;;5033980;28;20029;-62
2021/12/18 02:56:27;;;;;;;16.95;8.65;;;8.10;63.70;;;;;;5034594;28;20026;-69
2021/12/18 02:58:59;;;;;;;13.85;8.68;;;8.10;63.60;;;;;;5018400;28;20091;-74
2021/12/18 03:01:27;;;;;;;13.43;8.00;;;8.10;63.60;;;;;;5034346;28;20087;-64
2021/12/18 03:03:54;;;;;;;15.85;8.95;;;8.10;63.90;;;;;;5016598;28;20034;-62
2021/12/18 03:06:34;;;;;;;16.33;10.10;;;8.10;64.00;;;;;;5016177;28;20198;-71
2021/12/18 03:25:23;;;;;;;16.33;10.35;;;8.10;64.50;;;;;;5034088;28;20039;-64
2021/12/18 03:27:51;;;;;;;19.65;10.98;;;8.10;64.50;;;;;;5033878;28;20032;-70
2021/12/18 03:30:17;;;;;;;16.33;10.30;;;8.10;64.60;;;;;;5015483;28;20120;-66
2021/12/18 03:32:44;;;;;;;15.90;10.25;;;8.20;64.60;;;;;;5015619;28;20025;-65
2021/12/18 03:35:11;;;;;;;18.52;10.77;;;8.20;64.50;;;;;;5033111;28;20029;-66
2021/12/18 03:37:37;;;;;;;19.48;11.32;;;8.10;64.70;;;;;;5033857;28;20029;-66
2021/12/18 03:40:06;;;;;;;17.20;10.07;;;8.20;64.80;;;;;;5015621;28;20025;-71
2021/12/18 03:42:32;;;;;;;16.70;10.88;;;8.10;64.70;;;;;;5032956;28;20076;-63
2021/12/18 03:44:58;;;;;;;17.00;10.38;;;8.10;64.80;;;;;;5033350;28;20025;-63
2021/12/18 03:47:24;;;;;;;20.10;11.45;;;8.10;64.60;;;;;;5015188;28;20100;-68
2021/12/18 03:49:51;;;;;;;19.73;12.23;;;8.00;65.00;;;;;;5033170;28;20033;-62
2021/12/18 03:52:16;;;;;;;22.50;11.68;;;7.90;65.10;;;;;;5032355;28;20029;-67
2021/12/18 03:54:42;;;;;;;20.27;12.00;;;7.90;65.30;;;;;;5033204;28;20377;-65
2021/12/18 03:57:08;;;;;;;15.45;11.10;;;7.90;65.30;;;;;;5015243;28;20033;-68
2021/12/18 03:59:34;;;;;;;19.67;11.80;;;8.00;65.30;;;;;;5033411;28;20029;-69
2021/12/18 04:02:00;;;;;;;17.65;11.50;;;7.90;65.30;;;;;;5032989;28;20462;-72
2021/12/18 04:04:25;;;;;;;20.45;12.05;;;7.80;65.60;;;;;;5032898;28;20079;-65
2021/12/18 04:06:51;;;;;;;17.33;11.52;;;7.80;65.70;;;;;;5033400;28;20076;-68
2021/12/18 04:09:17;;;;;;;19.75;11.35;;;7.80;65.60;;;;;;5015213;28;20327;-66
2021/12/18 04:11:43;;;;;;;19.67;12.73;;;7.70;65.90;;;;;;5032824;28;20033;-69
2021/12/18 04:14:13;;;;;;;20.90;12.85;;;7.80;65.80;;;;;;5010854;28;20050;-69
2021/12/18 04:16:39;;;;;;;19.90;12.27;;;7.80;65.70;;;;;;5013440;28;20033;-69
2021/12/18 04:19:06;;;;;;;19.63;11.60;;;7.80;65.70;;;;;;5011159;28;20063;-71
2021/12/18 04:21:33;;;;;;;22.42;13.10;;;7.70;66.00;;;;;;5013349;28;20100;-68
2021/12/18 04:24:00;;;;;;;20.00;12.43;;;7.60;66.20;;;;;;5011602;28;20034;-66
2021/12/18 04:26:26;;;;;;;21.40;12.93;;;7.70;66.30;;;;;;5013329;28;20037;-69
2021/12/18 04:28:52;;;;;;;21.20;12.93;;;7.60;66.70;;;;;;5013042;28;20037;-63
2021/12/18 04:31:18;;;;;;;15.98;11.45;;;7.60;66.60;;;;;;5012432;28;20447;-72
2021/12/18 04:33:44;;;;;;;21.35;12.70;;;7.60;66.40;;;;;;5011964;28;20052;-72
2021/12/18 04:36:09;;;;;;;24.90;13.25;;;7.60;66.50;;;;;;5012549;28;20088;-70
2021/12/18 04:38:35;;;;;;;21.67;13.00;;;7.70;66.50;;;;;;5013669;28;20529;-70
2021/12/18 04:41:03;;;;;;;20.98;12.88;;;7.80;66.60;;;;;;5012700;28;20022;-69
2021/12/18 04:43:29;;;;;;;19.55;13.38;;;7.80;66.40;;;;;;5012683;28;20030;-70
2021/12/18 04:45:55;;;;;;;20.35;13.68;;;7.80;66.60;;;;;;5011756;28;20058;-68
2021/12/18 04:48:21;;;;;;;20.48;13.60;;;7.80;66.50;;;;;;5012640;28;20057;-66
2021/12/18 04:50:47;;;;;;;20.38;14.18;;;7.80;66.40;;;;;;5012515;28;20022;-66
2021/12/18 04:53:13;;;;;;;19.67;14.55;;;7.90;66.40;;;;;;5011669;28;20030;-68
2021/12/18 04:55:39;;;;;;;22.40;14.40;;;7.90;66.30;;;;;;5011577;28;20470;-65
2021/12/18 04:58:04;;;;;;;23.27;14.55;;;7.80;66.40;;;;;;5011033;28;20053;-72
2021/12/18 05:00:38;;;;;;;20.30;14.25;;;7.80;66.50;;;;;;5013385;28;20034;-68
2021/12/18 05:03:05;;;;;;;21.40;13.98;;;7.80;66.60;;;;;;5011779;28;20029;-68
2021/12/18 05:05:32;;;;;;;20.52;14.93;;;7.80;66.50;;;;;;5012973;28;20025;-71
2021/12/18 05:07:59;;;;;;;22.40;15.48;;;7.80;66.60;;;;;;5012956;28;20033;-62
2021/12/18 05:10:24;;;;;;;24.67;15.48;;;7.70;66.80;;;;;;5011611;28;20029;-74
2021/12/18 05:12:50;;;;;;;23.80;15.88;;;7.70;66.80;;;;;;5011244;28;20095;-66
2021/12/18 05:15:16;;;;;;;24.73;16.15;;;7.70;66.90;;;;;;5010509;28;20517;-67
2021/12/18 05:17:41;;;;;;;23.88;15.55;;;7.70;67.10;;;;;;5012493;28;20036;-61
2021/12/18 05:20:09;;;;;;;21.20;14.80;;;7.70;67.10;;;;;;5012371;28;20022;-66
2021/12/18 05:22:35;;;;;;;20.95;15.45;;;7.70;67.10;;;;;;5012656;28;20029;-65
2021/12/18 05:25:00;;;;;;;25.17;15.57;;;7.80;67.10;;;;;;5016009;28;20390;-71
2021/12/18 05:27:26;;;;;;;25.60;16.02;;;7.80;67.00;;;;;;5016996;28;20477;-69
2021/12/18 05:29:52;;;;;;;24.10;15.93;;;7.80;67.00;;;;;;5016253;28;20397;-66
2021/12/18 05:32:18;;;;;;;22.38;14.90;;;7.80;67.00;;;;;;5015722;28;20022;-65
2021/12/18 05:34:43;;;;;;;29.00;14.60;;;7.80;66.80;;;;;;5015228;28;20026;-64
2021/12/18 05:39:41;;;;;;;22.85;15.48;;;7.80;66.80;;;;;;5016954;28;20488;-74
2021/12/18 05:42:07;;;;;;;20.27;14.80;;;7.80;67.00;;;;;;5014736;28;20025;-67
2021/12/18 05:44:33;;;;;;;22.27;14.90;;;7.80;66.90;;;;;;5015854;28;20026;-68
2021/12/18 05:46:59;;;;;;;22.27;15.27;;;7.80;66.80;;;;;;5016285;28;20076;-65
2021/12/18 05:49:25;;;;;;;25.17;15.52;;;7.80;66.80;;;;;;5015993;28;20042;-69
2021/12/18 05:51:51;;;;;;;21.17;15.18;;;7.80;66.80;;;;;;5016000;28;20034;-68
2021/12/18 05:54:17;;;;;;;21.42;15.20;;;7.70;67.00;;;;;;5015048;28;20109;-71
2021/12/18 05:56:43;;;;;;;25.48;14.38;;;7.70;67.10;;;;;;5016009;28;20030;-68
2021/12/18 05:59:09;;;;;;;22.75;15.27;;;7.80;67.00;;;;;;5014458;28;20473;-68
2021/12/18 06:01:35;;;;;;;22.88;14.88;;;7.80;66.80;;;;;;5016437;28;20021;-67
2021/12/18 06:04:01;;;;;;;22.17;15.05;;;7.80;66.40;;;;;;5012992;28;20151;-67
2021/12/18 06:06:26;;;;;;;23.17;14.23;;;7.80;66.50;;;;;;5012705;28;20451;-68
2021/12/18 06:08:52;;;;;;;21.23;14.13;;;7.70;66.60;;;;;;5014104;28;20030;-64
2021/12/18 06:11:21;;;;;;;21.20;14.30;;;7.80;66.50;;;;;;5012973;28;20026;-63
2021/12/18 06:13:49;;;;;;;23.10;15.63;;;7.80;66.30;;;;;;5011672;28;20123;-74
2021/12/18 06:16:16;;;;;;;20.15;13.73;;;7.90;66.30;;;;;;5013148;28;20022;-69
2021/12/18 06:18:44;;;;;;;19.38;14.05;;;8.00;66.20;;;;;;5013238;28;20037;-64
2021/12/18 06:21:14;;;;;;;19.73;13.73;;;8.00;66.00;;;;;;5013049;28;20026;-68
2021/12/18 06:23:46;;;;;;;22.30;14.07;;;8.10;65.90;;;;;;5014441;28;20033;-65
2021/12/18 06:26:13;;;;;;;25.00;14.32;;;8.10;65.50;;;;;;5013253;28;20036;-68
2021/12/18 06:28:39;;;;;;;24.52;15.23;;;8.10;65.30;;;;;;5014963;28;20026;-66
2021/12/18 06:31:05;;;;;;;23.30;15.70;;;8.10;65.30;;;;;;5012947;28;20030;-69
2021/12/18 06:33:30;;;;;;;26.00;16.00;;;8.10;65.40;;;;;;5012669;28;20022;-65
2021/12/18 06:35:58;;;;;;;24.90;17.25;;;7.90;65.50;;;;;;5013022;28;20459;-64
2021/12/18 06:38:24;;;;;;;22.92;16.40;;;7.80;65.80;;;;;;5013054;28;20030;-63
2021/12/18 06:40:50;;;;;;;24.40;16.67;;;7.80;66.30;;;;;;5013457;28;20049;-65
2021/12/18 06:43:15;;;;;;;24.50;17.23;;;7.70;66.40;;;;;;5013522;28;20506;-65
2021/12/18 06:45:41;;;;;;;24.65;16.73;;;7.60;66.60;;;;;;5015041;28;20152;-67
2021/12/18 06:48:07;;;;;;;26.45;18.23;;;7.60;67.10;;;;;;5013634;28;20493;-65
2021/12/18 06:50:34;;;;;;;26.98;17.90;;;7.40;67.40;;;;;;5012997;28;20037;-67
2021/12/18 06:53:01;;;;;;;27.55;18.92;;;7.40;67.80;;;;;;5013467;28;20108;-61
2021/12/18 06:55:27;;;;;;;28.40;18.50;;;7.40;68.00;;;;;;5014780;28;20057;-70
2021/12/18 06:57:53;;;;;;;27.63;18.08;;;7.40;68.00;;;;;;5013321;28;20120;-63
2021/12/18 07:00:20;;;;;;;27.00;17.98;;;7.20;68.30;;;;;;5013931;28;20112;-61
2021/12/18 07:02:46;;;;;;;29.10;19.02;;;7.20;68.40;;;;;;5014155;28;20484;-65
2021/12/18 07:05:12;;;;;;;27.48;18.67;;;7.30;68.60;;;;;;5012725;28;20022;-67
2021/12/18 07:07:38;;;;;;;26.30;17.98;;;7.30;68.40;;;;;;5014817;28;20026;-66
2021/12/18 07:10:07;;;;;;;26.15;18.77;;;7.30;68.30;;;;;;5014433;28;20033;-65
2021/12/18 07:12:33;;;;;;;28.02;18.85;;;7.30;68.10;;;;;;5013942;28;20113;-74
2021/12/18 07:14:58;;;;;;;25.20;17.58;;;7.30;67.80;;;;;;5027621;28;20128;-67
2021/12/18 07:17:24;;;;;;;26.60;18.05;;;7.40;68.00;;;;;;5033455;28;20083;-64
2021/12/18 07:19:50;;;;;;;28.23;18.48;;;7.40;67.90;;;;;;5033291;28;20029;-62
2021/12/18 07:22:16;;;;;;;25.65;18.10;;;7.40;67.60;;;;;;5033234;28;20108;-70
2021/12/18 07:24:41;;;;;;;28.50;17.38;;;7.40;67.50;;;;;;5015636;28;20425;-73
2021/12/18 07:27:07;;;;;;;24.98;17.35;;;7.40;67.40;;;;;;5015419;28;20533;-66
2021/12/18 07:29:33;;;;;;;25.48;16.77;;;7.50;67.10;;;;;;5033971;28;20029;-64
2021/12/18 07:31:59;;;;;;;27.00;17.02;;;7.40;67.10;;;;;;5032752;28;20033;-69
2021/12/18 07:34:25;;;;;;;27.90;20.80;;;7.50;67.40;;;;;;5014426;28;20033;-63
2021/12/18 07:36:51;;;;;;;27.45;18.05;;;7.60;67.20;;;;;;5015009;28;20033;-69
2021/12/18 07:39:17;;;;;;;28.95;19.42;;;7.70;66.10;;;;;;5033108;28;20378;-63
2021/12/18 07:41:43;;;;;;;26.02;18.52;;;7.70;66.00;;;;;;5032613;28;20489;-65
2021/12/18 07:44:09;;;;;;;28.83;18.90;;;7.70;66.10;;;;;;5014666;28;20473;-65
2021/12/18 07:46:36;;;;;;;33.05;18.45;;;7.70;66.00;;;;;;5032303;28;20108;-70
2021/12/18 07:49:04;;;;;;;26.42;18.13;;;7.70;65.90;;;;;;5031872;28;20033;-62
2021/12/18 07:51:31;;;;;;;25.63;18.20;;;7.60;65.70;;;;;;5014602;28;20061;-70
2021/12/18 07:53:57;;;;;;;26.55;18.23;;;7.60;66.20;;;;;;5014647;28;20087;-62
2021/12/18 07:56:24;;;;;;;29.42;18.35;;;7.60;66.00;;;;;;5031085;28;20421;-73
2021/12/18 07:58:51;;;;;;;26.48;18.25;;;7.60;66.70;;;;;;5032640;28;20021;-62
2021/12/18 08:01:17;;;;;;;29.10;18.58;;;7.60;65.80;;;;;;5014335;28;20025;-66
2021/12/18 08:03:42;;;;;;;24.60;18.88;;;7.70;66.00;;;;;;5014947;28;20056;-69
2021/12/18 08:06:09;;;;;;;25.20;17.13;;;7.80;65.80;;;;;;5014121;28;20065;-65
2021/12/18 08:08:35;;;;;;;24.25;17.08;;;7.80;65.30;;;;;;5032661;28;20481;-66
2021/12/18 08:11:00;;;;;;;25.25;16.67;;;7.90;64.80;;;;;;5032065;28;20060;-66
2021/12/18 08:13:26;;;;;;;23.70;16.60;;;8.00;64.60;;;;;;5031752;28;20048;-62
2021/12/18 08:15:52;;;;;;;23.33;17.00;;;8.00;64.60;;;;;;5031436;28;20105;-62
2021/12/18 08:18:18;;;;;;;25.50;17.38;;;8.00;64.70;;;;;;5031663;28;20022;-69
2021/12/18 08:20:44;;;;;;;23.67;17.13;;;8.10;64.00;;;;;;5014702;28;20472;-63
2021/12/18 08:23:10;;;;;;;25.45;17.35;;;8.10;63.70;;;;;;5031322;28;20025;-70
2021/12/18 08:25:37;;;;;;;28.40;18.20;;;8.10;63.70;;;;;;5032050;28;20025;-70
2021/12/18 08:28:04;;;;;;;23.58;15.90;;;8.30;63.70;;;;;;5031522;28;20060;-63
2021/12/18 08:30:33;;;;;;;26.27;16.17;;;8.40;63.00;;;;;;5032060;28;20040;-67
2021/12/18 08:32:59;;;;;;;25.00;16.77;;;8.50;62.70;;;;;;5031408;28;20144;-64
2021/12/18 08:35:29;;;;;;;25.52;14.98;;;8.60;61.90;;;;;;5031588;28;20022;-66
2021/12/18 08:37:57;;;;;;;21.40;15.68;;;8.50;61.80;;;;;;5013960;28;20032;-64
2021/12/18 08:40:23;;;;;;;22.27;15.23;;;8.50;62.00;;;;;;5031005;28;20202;-65
2021/12/18 08:42:49;;;;;;;19.38;14.50;;;8.50;61.60;;;;;;5013711;28;20029;-62
2021/12/18 08:45:16;;;;;;;23.10;15.65;;;8.40;62.80;;;;;;5013030;28;20104;-62
2021/12/18 08:47:42;;;;;;;22.92;16.60;;;8.40;62.10;;;;;;5013345;28;20477;-64
2021/12/18 08:50:10;;;;;;;27.05;14.93;;;8.40;62.40;;;;;;5013671;28;20593;-61
2021/12/18 08:52:37;;;;;;;21.95;16.75;;;8.70;61.80;;;;;;5031780;28;20493;-68
2021/12/18 08:55:04;;;;;;;30.80;20.40;;;8.70;61.60;;;;;;5013885;28;20069;-62
2021/12/18 08:57:33;;;;;;;32.60;18.58;;;8.70;61.50;;;;;;5013974;28;20421;-60
2021/12/18 08:59:59;;;;;;;26.33;17.92;;;8.60;61.70;;;;;;5014069;28;20543;-67
2021/12/18 09:02:24;;;;;;;26.45;17.58;;;8.70;62.00;;;;;;5013744;28;20132;-65
2021/12/18 09:04:51;;;;;;;28.13;17.48;;;8.70;61.10;;;;;;5032364;28;20021;-72
2021/12/18 09:07:16;;;;;;;26.40;18.02;;;8.60;61.60;;;;;;5031271;28;20062;-72
2021/12/18 09:09:43;;;;;;;24.67;16.20;;;8.60;61.90;;;;;;5031807;28;20041;-66
2021/12/18 09:12:10;;;;;;;27.85;17.25;;;8.60;62.00;;;;;;5013679;28;20108;-64
2021/12/18 09:14:37;;;;;;;27.27;18.42;;;8.60;61.90;;;;;;5031815;28;20068;-66
2021/12/18 09:17:04;;;;;;;29.27;19.65;;;8.70;61.90;;;;;;5014597;28;20236;-66
2021/12/18 09:19:29;;;;;;;23.60;16.88;;;8.70;61.70;;;;;;5032131;28;20029;-68
2021/12/18 09:21:55;;;;;;;27.25;17.95;;;8.60;61.90;;;;;;5032235;28;20048;-63
2021/12/18 09:24:21;;;;;;;25.15;16.45;;;8.60;61.60;;;;;;5031358;28;20399;-64
2021/12/18 09:26:48;;;;;;;25.13;16.15;;;8.40;62.10;;;;;;5031957;28;20025;-65
2021/12/18 09:29:14;;;;;;;28.65;17.50;;;8.40;62.30;;;;;;5031583;28;20079;-65
2021/12/18 09:31:39;;;;;;;26.52;16.65;;;8.60;62.10;;;;;;4998049;28;20033;-64
2021/12/18 09:34:05;;;;;;;27.25;16.92;;;8.60;61.90;;;;;;5031793;28;20436;-66
2021/12/18 09:36:31;;;;;;;23.67;15.90;;;8.70;61.80;;;;;;5013390;28;20030;-63
2021/12/18 09:38:57;;;;;;;21.73;14.23;;;8.80;61.40;;;;;;5014234;28;20022;-67
2021/12/18 09:41:24;;;;;;;21.33;14.65;;;8.90;61.00;;;;;;5031423;28;20025;-63
2021/12/18 09:43:51;;;;;;;25.17;15.70;;;8.80;60.70;;;;;;5031919;28;20074;-63
2021/12/18 09:46:17;;;;;;;23.35;15.30;;;8.70;60.80;;;;;;5013319;28;20025;-68
2021/12/18 09:48:44;;;;;;;22.92;15.25;;;8.70;61.40;;;;;;5031962;28;20037;-61
2021/12/18 09:51:21;;;;;;;20.05;14.43;;;8.90;61.30;;;;;;5031617;28;20120;-63
2021/12/18 09:53:46;;;;;;;30.17;18.05;;;9.00;60.70;;;;;;5013864;28;20029;-65
2021/12/18 09:56:12;;;;;;;20.80;15.60;;;9.00;60.90;;;;;;5031571;28;20026;-64
2021/12/18 09:58:38;;;;;;;19.65;14.48;;;9.00;60.30;;;;;;5014342;28;20028;-65
2021/12/18 10:01:04;;;;;;;19.35;14.00;;;9.00;60.20;;;;;;5014035;28;20458;-62
2021/12/18 10:03:44;;;;;;;19.77;13.70;;;9.00;60.40;;;;;;5031299;28;20080;-68
2021/12/18 10:06:34;;;;;;;19.65;13.68;;;8.90;60.30;;;;;;5031104;28;20052;-60
2021/12/18 10:09:05;;;;;;;21.00;14.32;;;8.80;60.70;;;;;;5015451;28;20037;-65
2021/12/18 10:11:32;;;;;;;20.85;13.98;;;8.80;60.80;;;;;;5034877;28;20037;-63
2021/12/18 10:14:03;;;;;;;21.65;13.48;;;8.90;60.80;;;;;;5035507;28;20054;-63
2021/12/18 10:16:31;;;;;;;19.08;14.23;;;9.00;60.20;;;;;;5034958;28;20059;-63
2021/12/18 10:18:58;;;;;;;19.88;13.10;;;8.80;60.40;;;;;;5017425;28;20021;-64
2021/12/18 10:21:28;;;;;;;24.52;13.07;;;8.90;60.10;;;;;;5034272;28;20026;-70
2021/12/18 10:23:55;;;;;;;20.88;12.93;;;9.00;60.40;;;;;;5017268;28;20096;-64
2021/12/18 10:26:42;;;;;;;23.33;13.30;;;9.00;60.10;;;;;;5034091;28;20036;-65
2021/12/18 10:29:31;;;;;;;23.15;13.30;;;9.10;59.70;;;;;;5034970;28;20033;-66
2021/12/18 10:32:08;;;;;;;14.90;10.50;;;9.30;59.10;;;;;;5015921;28;20025;-66
2021/12/18 10:34:35;;;;;;;19.10;12.05;;;9.50;58.40;;;;;;5033769;28;20026;-66
2021/12/18 10:37:13;;;;;;;14.70;10.80;;;9.80;58.10;;;;;;5033262;28;20087;-64
2021/12/18 10:39:54;;;;;;;17.35;10.75;;;10.00;56.90;;;;;;5034584;28;20075;-66
2021/12/18 10:42:28;;;;;;;19.75;10.15;;;10.10;56.60;;;;;;5033425;28;20071;-64
2021/12/18 10:45:17;;;;;;;17.85;9.98;;;10.00;56.30;;;;;;5034074;28;20079;-62
2021/12/18 10:47:53;;;;;;;19.25;10.82;;;9.90;55.80;;;;;;5023808;28;20048;-65
2021/12/18 10:50:29;;;;;;;13.95;9.43;;;9.80;56.50;;;;;;5033906;28;20048;-66
2021/12/18 10:52:57;;;;;;;14.60;9.70;;;9.70;56.90;;;;;;5034013;28;20025;-64
2021/12/18 10:55:45;;;;;;;12.85;9.45;;;9.70;56.40;;;;;;5014419;28;20099;-68
2021/12/18 10:58:17;;;;;;;19.67;9.32;;;9.70;56.80;;;;;;5014917;28;20049;-63
2021/12/18 11:01:02;;;;;;;15.60;9.85;;;9.70;56.60;;;;;;5015585;28;20391;-66
2021/12/18 11:03:44;;;;;;;16.20;10.48;;;9.70;57.10;;;;;;5032711;28;20083;-63
2021/12/18 11:06:10;;;;;;;17.23;10.25;;;9.70;56.90;;;;;;5033310;28;20029;-62
2021/12/18 11:08:53;;;;;;;19.13;10.73;;;9.60;57.60;;;;;;5032487;28;20468;-66
2021/12/18 11:14:09;;;;;;;17.95;11.25;;;9.40;57.90;;;;;;5032895;28;20308;-60
2021/12/18 11:16:36;;;;;;;18.50;11.23;;;9.50;58.40;;;;;;5015374;28;20492;-62
2021/12/18 11:19:07;;;;;;;15.93;11.82;;;9.50;58.10;;;;;;5014347;28;20021;-61
2021/12/18 11:21:34;;;;;;;18.27;11.10;;;9.50;58.10;;;;;;5032627;28;20025;-62
2021/12/18 11:24:07;;;;;;;17.88;10.63;;;9.60;58.20;;;;;;5033254;28;20021;-62
2021/12/18 11:26:44;;;;;;;15.40;10.73;;;9.70;57.80;;;;;;5014589;28;20222;-60
2021/12/18 11:29:19;;;;;;;15.57;11.77;;;9.60;57.90;;;;;;5033525;28;20087;-63
2021/12/18 11:31:46;;;;;;;18.35;12.55;;;9.60;58.20;;;;;;5033209;28;20013;-62
2021/12/18 11:34:12;;;;;;;17.73;11.48;;;9.60;58.40;;;;;;5032375;28;20029;-61
2021/12/18 11:36:40;;;;;;;15.30;11.02;;;9.80;58.10;;;;;;5013929;28;20029;-67
2021/12/18 11:39:07;;;;;;;15.05;11.13;;;9.70;57.90;;;;;;5014362;28;20025;-61
2021/12/18 11:41:33;;;;;;;15.95;11.88;;;9.60;58.10;;;;;;5031469;28;20021;-62
2021/12/18 11:43:59;;;;;;;16.73;11.75;;;9.70;58.20;;;;;;5015015;28;20090;-62
2021/12/18 11:46:37;;;;;;;14.48;10.15;;;9.80;58.00;;;;;;5011725;28;20102;-65
2021/12/18 11:49:05;;;;;;;17.08;11.52;;;9.90;57.40;;;;;;5012636;28;20026;-60
2021/12/18 11:51:31;;;;;;;16.00;11.30;;;9.90;57.30;;;;;;5013759;28;20101;-63
2021/12/18 11:53:58;;;;;;;15.48;11.48;;;10.00;57.60;;;;;;5014390;28;20033;-62
2021/12/18 11:56:26;;;;;;;15.15;11.40;;;10.10;57.10;;;;;;5032065;28;20105;-64
2021/12/18 11:58:52;;;;;;;16.10;11.23;;;10.00;56.90;;;;;;5031595;28;20033;-61
2021/12/18 12:01:25;;;;;;;15.98;11.55;;;10.10;56.90;;;;;;5031175;28;20025;-59
2021/12/18 12:03:51;;;;;;;19.15;12.98;;;10.10;56.90;;;;;;5013745;28;20093;-60
2021/12/18 12:06:30;;;;;;;15.93;11.75;;;10.10;57.00;;;;;;5013244;28;20119;-59
2021/12/18 12:11:53;;;;;;;16.88;11.57;;;10.10;56.70;;;;;;5032044;28;20451;-64
2021/12/18 12:14:20;;;;;;;15.73;11.73;;;10.00;56.40;;;;;;5030958;28;20095;-64
2021/12/18 12:16:46;;;;;;;21.85;13.80;;;10.00;56.90;;;;;;5013938;28;20038;-64
2021/12/18 12:19:18;;;;;;;15.95;11.70;;;10.10;57.10;;;;;;5031278;28;20033;-63
2021/12/18 12:21:48;;;;;;;15.55;11.43;;;10.10;56.80;;;;;;5031788;28;20505;-67
2021/12/18 12:24:21;;;;;;;17.48;12.18;;;10.20;56.80;;;;;;5031867;28;20025;-64
2021/12/18 12:26:48;;;;;;;20.38;12.00;;;10.00;56.70;;;;;;5031217;28;20087;-66
2021/12/18 12:29:16;;;;;;;18.05;12.65;;;10.00;57.00;;;;;;5031248;28;20033;-62
2021/12/18 12:32:07;;;;;;;15.57;11.63;;;10.00;57.00;;;;;;5029798;28;20064;-58
2021/12/18 12:34:37;;;;;;;18.88;12.70;;;10.00;57.10;;;;;;5030290;28;20032;-61
2021/12/18 12:37:30;;;;;;;18.52;11.82;;;10.00;57.20;;;;;;5031229;28;20036;-64
2021/12/18 12:40:09;;;;;;;17.65;13.07;;;9.90;57.40;;;;;;5030989;28;20091;-63
2021/12/18 12:42:36;;;;;;;18.55;12.38;;;9.80;57.70;;;;;;5012453;28;20041;-65
2021/12/18 12:45:16;;;;;;;22.13;13.18;;;9.70;58.70;;;;;;5031010;28;20075;-63
2021/12/18 12:47:54;;;;;;;18.55;12.27;;;9.80;58.20;;;;;;5031339;28;20374;-63
2021/12/18 12:50:20;;;;;;;20.50;12.52;;;9.70;57.90;;;;;;5012625;28;20099;-61
2021/12/18 12:52:51;;;;;;;16.00;12.32;;;9.70;58.20;;;;;;5031201;28;20029;-65
2021/12/18 12:55:19;;;;;;;14.07;10.80;;;9.60;58.30;;;;;;5030365;28;20080;-54
2021/12/18 12:57:57;;;;;;;16.55;11.65;;;9.60;58.40;;;;;;5012978;28;20084;-63
2021/12/18 13:00:26;;;;;;;17.77;12.95;;;9.50;58.60;;;;;;5031026;28;20139;-64
2021/12/18 13:02:58;;;;;;;19.08;13.00;;;9.50;58.80;;;;;;5014113;28;20032;-65
2021/12/18 13:05:26;;;;;;;17.33;12.38;;;9.50;58.90;;;;;;5030117;28;20108;-65
2021/12/18 13:07:55;;;;;;;19.80;12.65;;;9.50;58.70;;;;;;5029965;28;20091;-63
2021/12/18 13:10:35;;;;;;;16.55;11.05;;;9.40;58.60;;;;;;5029758;28;20084;-67
2021/12/18 13:13:13;;;;;;;17.08;11.95;;;9.30;59.20;;;;;;5030475;28;20028;-65
2021/12/18 13:16:10;;;;;;;17.70;11.75;;;9.10;59.30;;;;;;5030726;28;20041;-55
2021/12/18 13:18:45;;;;;;;20.10;13.73;;;9.10;59.50;;;;;;5030592;28;20057;-60
2021/12/18 13:21:23;;;;;;;18.02;12.40;;;9.10;59.50;;;;;;5031338;28;20030;-57
2021/12/18 13:24:01;;;;;;;16.63;11.93;;;9.00;59.50;;;;;;5013395;28;20041;-60
2021/12/18 13:26:46;;;;;;;15.85;11.07;;;9.10;59.50;;;;;;5012227;28;20029;-61
2021/12/18 13:29:16;;;;;;;17.05;11.30;;;9.10;59.20;;;;;;5013129;28;20163;-56
2021/12/18 13:31:46;;;;;;;17.15;11.80;;;9.20;59.00;;;;;;5030047;28;20189;-62
2021/12/18 13:34:24;;;;;;;19.77;11.48;;;9.20;59.00;;;;;;5030899;28;20108;-59
2021/12/18 13:36:56;;;;;;;14.15;10.18;;;9.20;58.90;;;;;;5030346;28;20059;-62
2021/12/18 13:39:31;;;;;;;15.82;11.45;;;9.10;59.70;;;;;;5029960;28;20045;-60